Time;durP1;ratioP1;P1;durP2;ratioP2;P2;SDS_P1;SDS_P2;PMS_P1;PMS_P2;Temp;Humidity;BMP_temperature;BMP_pressure;BME280_temperature;BME280_humidity;BME280_pressure;Samples;Min_cycle;Max_cycle;Signal;HPM_P1;HPM_P2
2023/09/12 00:01:36;;;;;;;16.52;8.75;;;;;;;19.42;75.19;97892.84;4416103;32;20113;-81
2023/09/12 00:04:03;;;;;;;19.98;9.30;;;;;;;19.51;75.11;97884.25;4415284;32;20109;-80
2023/09/12 00:06:31;;;;;;;18.77;8.40;;;;;;;19.65;74.32;97883.16;4415600;32;20059;-81
2023/09/12 00:08:58;;;;;;;15.65;8.20;;;;;;;19.85;73.08;97889.37;4415629;32;20098;-81
2023/09/12 00:11:25;;;;;;;14.80;8.20;;;;;;;19.82;72.59;97887.84;4414647;32;20090;-81
2023/09/12 00:13:53;;;;;;;18.08;8.40;;;;;;;19.58;73.26;97887.25;4401511;32;20444;-81
2023/09/12 00:16:20;;;;;;;19.33;8.07;;;;;;;19.49;73.48;97888.78;4415346;32;20487;-81
2023/09/12 00:18:47;;;;;;;15.65;8.73;;;;;;;19.58;73.40;97888.09;4414925;32;20051;-81
2023/09/12 00:21:14;;;;;;;19.52;8.85;;;;;;;19.49;73.26;97888.78;4415091;32;20741;-81
2023/09/12 00:23:41;;;;;;;19.87;8.43;;;;;;;19.16;75.79;97883.69;4415033;32;20101;-80
2023/09/12 00:26:08;;;;;;;14.35;7.60;;;;;;;19.61;73.52;97881.75;4414972;32;20166;-81
2023/09/12 00:28:35;;;;;;;18.65;8.20;;;;;;;19.60;73.48;97874.87;4414951;32;20488;-82
2023/09/12 00:31:02;;;;;;;16.20;8.10;;;;;;;19.34;73.94;97880.38;4414981;32;20150;-81
2023/09/12 00:33:29;;;;;;;15.30;7.87;;;;;;;19.18;74.51;97872.13;4415037;32;20753;-81
2023/09/12 00:35:59;;;;;;;16.10;8.55;;;;;;;19.23;74.08;97874.37;4415017;32;20152;-81
2023/09/12 00:38:26;;;;;;;16.48;8.43;;;;;;;19.20;74.19;97874.63;4414877;32;20105;-81
2023/09/12 00:40:53;;;;;;;20.88;8.48;;;;;;;18.85;75.59;97873.03;4416094;32;20157;-82
2023/09/12 00:43:20;;;;;;;20.08;8.60;;;;;;;18.96;75.49;97878.25;4416399;32;20062;-81
2023/09/12 00:45:47;;;;;;;17.00;9.00;;;;;;;19.17;74.34;97878.31;4415965;32;20062;-81
2023/09/12 00:48:15;;;;;;;19.67;8.57;;;;;;;19.08;74.38;97869.41;4416605;32;20074;-81
2023/09/12 00:50:43;;;;;;;19.73;8.50;;;;;;;19.22;73.37;97867.47;4416462;32;20078;-81
2023/09/12 00:53:10;;;;;;;16.45;9.52;;;;;;;18.95;75.22;97860.91;4415935;32;20739;-81
2023/09/12 00:55:40;;;;;;;19.50;8.75;;;;;;;18.87;76.17;97857.22;4402569;32;20169;-82
2023/09/12 00:58:07;;;;;;;14.80;8.20;;;;;;;18.90;76.45;97860.41;4402488;32;20074;-82
2023/09/12 01:00:34;;;;;;;15.90;8.45;;;;;;;18.95;76.29;97860.91;4401331;32;20360;-81
2023/09/12 01:03:02;;;;;;;16.42;8.57;;;;;;;19.01;75.57;97854.34;4416104;32;20124;-81
2023/09/12 01:05:30;;;;;;;16.20;8.63;;;;;;;18.81;76.01;97858.53;4415893;32;20730;-81
2023/09/12 01:07:57;;;;;;;18.45;9.40;;;;;;;18.80;75.32;97859.50;4416041;32;20117;-81
2023/09/12 01:10:24;;;;;;;15.65;9.05;;;;;;;18.48;76.70;97860.19;4416327;32;20157;-82
2023/09/12 01:12:52;;;;;;;14.32;8.25;;;;;;;18.82;75.77;97860.22;4403147;32;20126;-81
2023/09/12 01:15:19;;;;;;;15.52;8.68;;;;;;;19.00;74.18;97852.69;4416248;32;20094;-81
2023/09/12 01:17:46;;;;;;;19.95;9.02;;;;;;;18.67;76.20;97851.78;4412087;32;145947;-81
2023/09/12 01:20:21;;;;;;;18.20;8.75;;;;;;;18.46;77.54;97858.66;4416210;32;20112;-82
2023/09/12 01:23:25;;;;;;;16.50;8.80;;;;;;;18.99;75.34;97854.47;4403221;32;20154;-81
2023/09/12 01:26:04;;;;;;;16.00;8.68;;;;;;;18.63;77.95;97860.81;4415714;32;20601;-82
2023/09/12 01:28:34;;;;;;;16.35;8.57;;;;;;;18.65;79.06;97858.94;4402315;32;20108;-81
2023/09/12 01:31:03;;;;;;;17.05;8.98;;;;;;;18.92;77.37;97865.53;4415845;32;20058;-81
2023/09/12 01:33:30;;;;;;;21.12;8.80;;;;;;;18.81;76.46;97862.94;4416216;32;20162;-81
2023/09/12 01:36:00;;;;;;;15.82;8.32;;;;;;;18.67;76.50;97864.03;4415930;32;20086;-81
2023/09/12 01:38:27;;;;;;;14.65;8.27;;;;;;;18.64;77.82;97857.25;4403076;32;20101;-81
2023/09/12 01:40:55;;;;;;;18.55;8.75;;;;;;;18.92;78.46;97862.91;4416871;32;20157;-82
2023/09/12 01:43:23;;;;;;;16.02;8.18;;;;;;;18.82;79.67;97864.59;4416461;32;20102;-82
2023/09/12 01:45:53;;;;;;;19.42;8.55;;;;;;;18.79;79.77;97863.06;4402731;32;20070;-81
2023/09/12 01:48:23;;;;;;;19.20;8.98;;;;;;;18.82;78.86;97864.59;4403144;32;20081;-82
2023/09/12 01:50:50;;;;;;;17.50;8.45;;;;;;;18.69;79.93;97867.34;4416576;32;20106;-82
2023/09/12 01:53:18;;;;;;;18.02;8.50;;;;;;;18.86;78.15;97872.09;4416300;32;20124;-81
2023/09/12 01:55:46;;;;;;;18.55;8.65;;;;;;;18.76;78.83;97869.38;4402195;32;20066;-81
2023/09/12 01:58:13;;;;;;;20.00;8.88;;;;;;;18.97;78.64;97860.78;4402482;32;20093;-82
2023/09/12 02:00:41;;;;;;;19.83;8.13;;;;;;;18.91;78.84;97867.31;4416296;32;20093;-81
2023/09/12 02:03:08;;;;;;;16.70;8.73;;;;;;;19.13;77.44;97857.75;4402286;32;20094;-82
2023/09/12 02:05:37;;;;;;;22.15;8.48;;;;;;;19.26;77.81;97861.88;4416168;32;20108;-81
2023/09/12 02:08:05;;;;;;;21.50;9.38;;;;;;;19.49;76.34;97864.41;4402358;32;20092;-82
2023/09/12 02:10:32;;;;;;;20.12;9.00;;;;;;;19.60;73.62;97864.41;4401961;32;20150;-81
2023/09/12 02:12:59;;;;;;;19.12;9.23;;;;;;;19.10;76.01;97863.22;4415552;32;20096;-81
2023/09/12 02:15:26;;;;;;;17.15;8.43;;;;;;;19.16;76.49;97868.81;4415713;32;20110;-82
2023/09/12 02:17:53;;;;;;;17.48;8.48;;;;;;;19.17;75.99;97872.25;4415722;32;20075;-81
2023/09/12 02:20:20;;;;;;;16.35;9.00;;;;;;;19.52;74.60;97878.06;4416031;32;20110;-81
2023/09/12 02:22:47;;;;;;;17.52;8.10;;;;;;;19.44;74.13;97879.66;4416137;32;20105;-82
2023/09/12 02:25:14;;;;;;;17.45;8.68;;;;;;;18.95;75.18;97881.00;4415812;32;20128;-82
2023/09/12 02:27:41;;;;;;;17.87;8.48;;;;;;;18.91;75.58;97877.75;4416178;32;20097;-82
2023/09/12 02:30:09;;;;;;;15.75;8.07;;;;;;;19.09;73.68;97880.72;4416132;32;20086;-81
2023/09/12 02:32:36;;;;;;;15.88;8.45;;;;;;;19.13;73.98;97876.88;4415962;32;20136;-82
2023/09/12 02:35:03;;;;;;;16.20;8.38;;;;;;;19.43;72.39;97876.19;4416290;32;20093;-82
2023/09/12 02:37:30;;;;;;;18.33;9.02;;;;;;;18.47;77.84;97873.38;4415605;32;20100;-82
2023/09/12 02:39:57;;;;;;;18.02;9.13;;;;;;;18.62;77.29;97876.59;4415569;32;20126;-81
2023/09/12 02:42:25;;;;;;;14.02;8.23;;;;;;;18.56;77.91;97869.22;4402222;32;20128;-81
2023/09/12 02:44:52;;;;;;;16.73;8.70;;;;;;;18.84;75.97;97878.41;4415341;32;20130;-82
2023/09/12 02:47:19;;;;;;;15.70;8.60;;;;;;;18.63;77.35;97873.87;4415430;32;20122;-82
2023/09/12 02:49:46;;;;;;;17.73;8.93;;;;;;;18.95;75.74;97881.00;4401743;32;20122;-81
2023/09/12 02:52:13;;;;;;;17.33;8.73;;;;;;;18.47;77.33;97878.59;4415201;32;20493;-81
2023/09/12 02:54:40;;;;;;;15.30;8.07;;;;;;;18.82;75.31;97875.91;4415081;32;20125;-81
2023/09/12 02:57:07;;;;;;;17.73;8.95;;;;;;;19.01;73.61;97883.09;4401763;32;20148;-82
2023/09/12 02:59:34;;;;;;;16.85;9.63;;;;;;;18.69;75.10;97889.09;4414700;32;20122;-82
2023/09/12 03:02:01;;;;;;;16.35;9.10;;;;;;;18.72;74.58;97883.63;4415280;32;20161;-82
2023/09/12 03:04:29;;;;;;;17.15;9.23;;;;;;;18.49;75.86;97890.59;4415394;32;20082;-81
2023/09/12 03:06:56;;;;;;;17.77;8.75;;;;;;;18.25;76.22;97884.66;4401745;32;20074;-81
2023/09/12 03:09:24;;;;;;;18.62;9.02;;;;;;;18.46;75.08;97887.41;4415668;32;20484;-81
2023/09/12 03:11:51;;;;;;;16.95;8.23;;;;;;;18.36;75.37;97886.44;4416093;32;20093;-82
2023/09/12 03:14:19;;;;;;;20.00;9.15;;;;;;;18.39;75.26;97880.97;4414861;32;20090;-81
2023/09/12 03:16:46;;;;;;;17.37;9.10;;;;;;;18.15;76.87;97887.13;4401925;32;20094;-82
2023/09/12 03:19:13;;;;;;;19.10;9.43;;;;;;;18.10;78.35;97881.44;4415319;32;20078;-81
2023/09/12 03:21:40;;;;;;;19.37;9.38;;;;;;;18.03;78.75;97877.62;4415174;32;20054;-81
2023/09/12 03:24:07;;;;;;;19.65;9.43;;;;;;;17.78;80.64;97875.19;4414542;32;20109;-81
2023/09/12 03:26:35;;;;;;;20.42;9.63;;;;;;;17.76;80.80;97872.72;4414909;32;20504;-81
2023/09/12 03:29:04;;;;;;;17.08;9.20;;;;;;;17.89;80.47;97870.84;4401184;32;20066;-81
2023/09/12 03:31:31;;;;;;;17.55;9.18;;;;;;;18.47;77.40;97876.00;4402471;32;20211;-81
2023/09/12 03:33:58;;;;;;;16.87;9.57;;;;;;;18.24;77.76;97874.31;4414698;32;20102;-81
2023/09/12 03:36:25;;;;;;;18.62;9.70;;;;;;;18.64;76.41;97878.16;4414611;32;20166;-82
2023/09/12 03:38:52;;;;;;;15.68;8.65;;;;;;;18.13;78.87;97883.81;4414609;32;20105;-82
2023/09/12 03:41:19;;;;;;;20.12;9.38;;;;;;;18.13;79.18;97870.75;4414588;32;20062;-82
2023/09/12 03:43:46;;;;;;;19.58;9.48;;;;;;;18.27;79.11;97880.13;4414636;32;20107;-81
2023/09/12 03:46:13;;;;;;;17.73;9.98;;;;;;;18.23;77.81;97877.88;4414662;32;20110;-82
2023/09/12 03:48:40;;;;;;;17.65;9.40;;;;;;;18.35;76.14;97875.16;4414326;32;20108;-82
2023/09/12 03:51:08;;;;;;;17.73;9.35;;;;;;;17.99;77.47;97878.81;4414770;32;20074;-81
2023/09/12 03:53:36;;;;;;;17.25;9.55;;;;;;;17.87;78.36;97867.53;4414617;32;20054;-81
2023/09/12 03:56:03;;;;;;;15.85;9.05;;;;;;;17.89;78.06;97864.78;4414495;32;20149;-82
2023/09/12 03:58:30;;;;;;;18.33;9.50;;;;;;;18.47;75.46;97874.22;4415178;32;20762;-82
2023/09/12 04:00:57;;;;;;;16.30;9.85;;;;;;;18.43;75.60;97872.81;4400455;32;20088;-81
2023/09/12 04:03:24;;;;;;;18.80;9.93;;;;;;;18.36;77.46;97876.00;4412885;32;20100;-81
2023/09/12 04:05:51;;;;;;;20.20;10.25;;;;;;;18.49;77.10;97881.94;4411924;32;20154;-81
2023/09/12 04:08:18;;;;;;;17.85;9.85;;;;;;;18.33;76.99;97884.06;4412311;32;20095;-81
2023/09/12 04:10:45;;;;;;;18.25;9.98;;;;;;;18.20;77.03;97887.63;4412205;32;20156;-81
2023/09/12 04:13:12;;;;;;;20.35;9.40;;;;;;;17.97;77.68;97887.69;4412341;32;20069;-81
2023/09/12 04:15:39;;;;;;;19.75;9.52;;;;;;;18.10;76.81;97886.66;4411912;32;20104;-81
2023/09/12 04:18:06;;;;;;;19.02;9.90;;;;;;;17.97;76.47;97891.16;4412439;32;20098;-81
2023/09/12 04:20:33;;;;;;;19.15;9.80;;;;;;;17.97;77.43;97891.16;4412333;32;20153;-81
2023/09/12 04:23:02;;;;;;;19.45;10.02;;;;;;;17.63;78.65;97884.94;4412583;32;20078;-81
2023/09/12 04:25:30;;;;;;;21.40;10.57;;;;;;;17.84;78.90;97885.16;4412853;32;20471;-81
2023/09/12 04:27:57;;;;;;;22.08;10.02;;;;;;;18.07;77.71;97893.88;4399100;32;20107;-81
2023/09/12 04:30:24;;;;;;;20.55;10.82;;;;;;;18.25;76.54;97902.09;4412407;32;20147;-81
2023/09/12 04:32:51;;;;;;;20.00;9.18;;;;;;;17.86;77.54;97894.56;4412657;32;20100;-81
2023/09/12 04:35:19;;;;;;;20.37;9.85;;;;;;;17.88;77.78;97897.87;4413118;32;20066;-81
2023/09/12 04:37:47;;;;;;;19.95;10.32;;;;;;;17.91;77.26;97899.44;4400452;32;20077;-81
2023/09/12 04:40:14;;;;;;;23.25;9.90;;;;;;;17.80;79.12;97902.84;4414463;32;20113;-81
2023/09/12 04:42:41;;;;;;;19.08;9.27;;;;;;;18.11;77.42;97904.00;4414218;32;20100;-81
2023/09/12 04:45:09;;;;;;;16.45;9.23;;;;;;;18.15;77.15;97908.00;4414200;32;20073;-81
2023/09/12 04:47:36;;;;;;;19.20;9.70;;;;;;;18.11;76.50;97911.81;4400521;32;20117;-81
2023/09/12 04:50:03;;;;;;;18.00;9.27;;;;;;;18.47;73.92;97908.19;4413746;32;20582;-81
2023/09/12 04:52:30;;;;;;;16.40;9.02;;;;;;;18.11;76.11;97911.00;4413564;32;20094;-81
2023/09/12 04:55:00;;;;;;;19.12;9.65;;;;;;;17.71;78.78;97919.16;4413975;32;20098;-81
2023/09/12 04:57:30;;;;;;;21.55;10.32;;;;;;;18.04;78.46;97918.44;4414267;32;20131;-81
2023/09/12 05:00:00;;;;;;;20.92;9.77;;;;;;;17.92;80.07;97917.59;4413764;32;20069;-81
2023/09/12 05:02:28;;;;;;;24.92;10.20;;;;;;;18.06;81.42;97916.53;4413568;32;20094;-81
2023/09/12 05:04:55;;;;;;;20.65;10.23;;;;;;;18.58;79.93;97916.97;4413072;32;20104;-81
2023/09/12 05:07:22;;;;;;;17.80;9.10;;;;;;;18.89;79.02;97916.28;4413159;32;20104;-81
2023/09/12 05:09:49;;;;;;;19.85;8.05;;;;;;;19.05;77.47;97916.75;4412925;32;20405;-81
2023/09/12 05:12:16;;;;;;;16.33;8.68;;;;;;;19.60;73.97;97919.34;4412587;32;20106;-81
2023/09/12 05:14:43;;;;;;;19.23;8.50;;;;;;;19.84;73.51;97911.28;4412429;32;20361;-81
2023/09/12 05:17:10;;;;;;;25.12;8.48;;;;;;;20.42;71.46;97927.37;4412007;32;20465;-81
2023/09/12 05:19:37;;;;;;;17.73;8.10;;;;;;;20.85;69.25;97924.56;4412185;32;20184;-81
2023/09/12 05:22:04;;;;;;;14.93;7.85;;;;;;;21.44;67.31;97922.91;4412502;32;20081;-81
2023/09/12 05:24:31;;;;;;;19.52;8.25;;;;;;;22.02;65.03;97923.75;4412780;32;20086;-81
2023/09/12 05:26:58;;;;;;;17.50;7.82;;;;;;;22.49;62.64;97931.69;4412448;32;20488;-81
2023/09/12 05:29:25;;;;;;;11.90;7.05;;;;;;;22.47;60.81;97928.41;4412697;32;20137;-81
2023/09/12 05:31:52;;;;;;;13.43;7.40;;;;;;;22.76;60.25;97921.25;4412642;32;20141;-81
2023/09/12 05:34:19;;;;;;;15.55;7.28;;;;;;;23.03;59.32;97924.88;4412184;32;20079;-81
2023/09/12 05:36:46;;;;;;;13.90;7.60;;;;;;;23.20;58.48;97926.72;4412411;32;20143;-81
2023/09/12 05:39:13;;;;;;;13.13;7.12;;;;;;;23.75;57.50;97931.91;4412513;32;20050;-81
2023/09/12 05:41:40;;;;;;;14.65;7.28;;;;;;;24.35;55.42;97929.44;4413183;32;20469;-81
2023/09/12 05:44:07;;;;;;;16.10;7.53;;;;;;;25.08;53.88;97935.09;4413120;32;20141;-81
2023/09/12 05:46:35;;;;;;;14.73;7.25;;;;;;;25.43;53.11;97940.34;4412193;32;20408;-81
2023/09/12 05:49:02;;;;;;;18.05;7.07;;;;;;;26.21;50.95;97936.28;4414985;32;20054;-80
2023/09/12 05:51:29;;;;;;;16.30;7.15;;;;;;;26.64;50.41;97936.09;4416494;32;20089;-83
2023/09/12 05:53:56;;;;;;;15.95;7.68;;;;;;;27.14;49.29;97940.25;4396636;32;20434;-82
2023/09/12 05:56:23;;;;;;;16.67;6.90;;;;;;;27.46;48.25;97939.25;4412489;32;20480;-83
2023/09/12 05:58:50;;;;;;;14.27;6.60;;;;;;;28.11;47.05;97944.94;4405182;32;20070;-81
2023/09/12 06:01:17;;;;;;;15.73;7.28;;;;;;;28.49;45.34;97935.13;4415647;32;20510;-82
2023/09/12 06:03:45;;;;;;;13.32;6.47;;;;;;;28.78;44.54;97941.47;4412608;32;20083;-81
2023/09/12 06:06:12;;;;;;;13.85;6.80;;;;;;;29.20;43.83;97946.13;4410223;32;20091;-85
2023/09/12 06:08:39;;;;;;;13.07;6.90;;;;;;;29.44;43.64;97949.47;4411944;32;20124;-84
2023/09/12 06:11:07;;;;;;;20.55;6.62;;;;;;;29.71;43.33;97947.97;4412581;32;20108;-83
2023/09/12 06:13:37;;;;;;;21.40;7.12;;;;;;;30.10;42.77;97943.06;4413437;32;20604;-83
2023/09/12 06:16:05;;;;;;;13.38;6.70;;;;;;;29.83;42.90;97939.28;4414937;32;20081;-83
2023/09/12 06:18:35;;;;;;;15.75;6.70;;;;;;;30.27;42.75;97943.56;4413889;32;20102;-83
2023/09/12 06:21:08;;;;;;;12.18;6.00;;;;;;;30.40;41.95;97937.53;4416634;32;20062;-82
2023/09/12 06:23:36;;;;;;;16.17;6.60;;;;;;;30.50;41.36;97936.16;4408212;32;20111;-83
2023/09/12 06:26:03;;;;;;;11.70;6.75;;;;;;;31.20;40.68;97937.00;4409842;32;20075;-83
2023/09/12 06:28:31;;;;;;;13.13;6.65;;;;;;;31.38;40.19;97931.97;4418225;32;20108;-82
2023/09/12 06:30:58;;;;;;;15.38;6.22;;;;;;;31.79;39.14;97933.69;4405686;32;20075;-82
2023/09/12 06:33:26;;;;;;;16.58;6.30;;;;;;;32.08;38.50;97929.00;4417944;32;20077;-83
2023/09/12 06:35:54;;;;;;;13.27;6.43;;;;;;;32.72;37.78;97931.03;4413544;32;20101;-83
2023/09/12 06:38:22;;;;;;;20.50;7.07;;;;;;;33.23;36.68;97938.28;4416803;32;20401;-83
2023/09/12 06:40:49;;;;;;;13.65;6.70;;;;;;;33.42;36.20;97937.41;4398853;32;20081;-82
2023/09/12 06:43:16;;;;;;;16.17;7.20;;;;;;;33.58;36.29;97936.88;4413091;32;20066;-82
2023/09/12 06:45:43;;;;;;;12.98;6.57;;;;;;;33.53;36.42;97941.25;4416565;32;20120;-82
2023/09/12 06:48:10;;;;;;;14.65;6.95;;;;;;;34.53;34.81;97946.72;4416684;32;20119;-82
2023/09/12 06:50:38;;;;;;;15.57;6.90;;;;;;;34.79;34.08;97941.94;4421247;32;20129;-82
2023/09/12 06:53:07;;;;;;;17.87;7.45;;;;;;;35.21;33.87;97946.62;4422147;32;20054;-83
2023/09/12 06:55:36;;;;;;;13.88;6.82;;;;;;;35.63;32.16;97944.88;4424233;32;20074;-83
2023/09/12 06:58:03;;;;;;;13.35;4.72;;;;;;;35.56;32.68;97936.91;4421214;32;20110;-83
2023/09/12 07:00:31;;;;;;;11.15;4.65;;;;;;;35.80;27.39;97935.09;4423931;32;20082;-83
2023/09/12 07:02:58;;;;;;;11.02;4.90;;;;;;;35.88;27.74;97931.31;4424816;32;20050;-83
2023/09/12 07:05:25;;;;;;;16.12;5.57;;;;;;;36.19;27.68;97938.25;4424262;32;20070;-82
2023/09/12 07:07:52;;;;;;;11.73;5.12;;;;;;;36.09;27.88;97938.00;4424849;32;20081;-82
2023/09/12 07:10:19;;;;;;;13.77;5.47;;;;;;;35.35;29.91;97932.81;4424589;32;20092;-82
2023/09/12 07:12:50;;;;;;;12.35;5.82;;;;;;;34.92;30.17;97932.94;4424625;32;20077;-82
2023/09/12 07:15:17;;;;;;;12.70;5.20;;;;;;;35.01;30.04;97942.31;4424597;32;20129;-82
2023/09/12 07:17:44;;;;;;;12.43;5.53;;;;;;;35.49;29.43;97938.84;4423923;32;20070;-83
2023/09/12 07:20:12;;;;;;;15.00;5.37;;;;;;;35.63;29.33;97939.50;4422360;32;20143;-83
2023/09/12 07:22:42;;;;;;;12.27;5.30;;;;;;;34.85;30.10;97945.56;4423741;32;20055;-82
2023/09/12 07:25:11;;;;;;;13.50;5.43;;;;;;;35.43;30.06;97952.38;4424337;32;20078;-82
2023/09/12 07:27:38;;;;;;;10.40;5.20;;;;;;;35.36;30.08;97947.88;4424431;32;20084;-82
2023/09/12 07:30:07;;;;;;;12.35;5.60;;;;;;;35.23;30.69;97945.34;4424240;32;20099;-82
2023/09/12 07:32:34;;;;;;;10.32;5.35;;;;;;;35.04;29.72;97946.41;4424213;32;20112;-82
2023/09/12 07:35:03;;;;;;;13.45;5.35;;;;;;;35.24;31.18;97947.00;4424158;32;20078;-82
2023/09/12 07:37:30;;;;;;;11.93;5.18;;;;;;;34.43;31.81;97944.53;4424207;32;20113;-82
2023/09/12 07:39:57;;;;;;;12.63;5.80;;;;;;;34.38;32.40;97947.06;4424129;32;20062;-82
2023/09/12 07:42:24;;;;;;;12.23;5.40;;;;;;;33.92;31.55;97938.38;4424277;32;20097;-82
2023/09/12 07:44:55;;;;;;;11.43;5.53;;;;;;;34.01;32.33;97940.75;4424116;32;20085;-82
2023/09/12 07:47:22;;;;;;;13.00;5.18;;;;;;;33.71;33.90;97952.06;4423480;32;20106;-82
2023/09/12 07:49:53;;;;;;;12.43;5.35;;;;;;;33.76;33.69;97946.88;4424026;32;20063;-82
2023/09/12 07:52:21;;;;;;;12.60;5.60;;;;;;;33.81;32.22;97936.31;4423275;32;20114;-81
2023/09/12 07:54:52;;;;;;;12.88;5.22;;;;;;;32.67;33.90;97938.84;4423081;32;20114;-82
2023/09/12 07:57:19;;;;;;;13.27;5.40;;;;;;;33.00;34.85;97942.28;4423180;32;20122;-82
2023/09/12 07:59:46;;;;;;;16.85;5.57;;;;;;;33.42;33.68;97944.59;4423191;32;20066;-82
2023/09/12 08:02:13;;;;;;;13.45;5.90;;;;;;;33.83;32.18;97946.84;4422257;32;20074;-82
2023/09/12 08:04:41;;;;;;;11.68;5.53;;;;;;;34.07;32.67;97950.59;4423210;32;20114;-82
2023/09/12 08:07:08;;;;;;;9.70;5.40;;;;;;;34.70;31.33;97947.78;4423861;32;20100;-82
2023/09/12 08:09:51;;;;;;;10.85;5.68;;;;;;;34.40;30.11;97951.16;4424426;32;20077;-82
2023/09/12 08:12:21;;;;;;;11.77;5.32;;;;;;;33.67;31.46;97950.84;4425498;32;20098;-81
2023/09/12 08:14:48;;;;;;;10.60;5.78;;;;;;;33.99;31.90;97949.00;4425591;32;20074;-82
2023/09/12 08:17:15;;;;;;;12.65;5.82;;;;;;;33.96;31.84;97948.63;4425133;32;20126;-82
2023/09/12 08:19:42;;;;;;;11.73;5.80;;;;;;;34.07;31.19;97954.09;4425682;32;20066;-82
2023/09/12 08:22:10;;;;;;;12.60;5.70;;;;;;;34.15;31.21;97955.69;4425426;32;20130;-83
2023/09/12 08:24:39;;;;;;;11.80;5.68;;;;;;;34.32;31.21;97954.09;4425300;32;20123;-82
2023/09/12 08:27:07;;;;;;;12.68;5.72;;;;;;;34.27;30.34;97953.13;4413015;32;20084;-82
2023/09/12 08:29:34;;;;;;;13.65;5.80;;;;;;;33.98;30.74;97952.72;4425386;32;20118;-82
2023/09/12 08:32:01;;;;;;;12.65;6.43;;;;;;;34.04;30.09;97961.75;4425971;32;20059;-82
2023/09/12 08:34:28;;;;;;;13.98;6.03;;;;;;;34.05;29.69;97958.84;4423934;32;20098;-80
2023/09/12 08:36:55;;;;;;;12.45;7.30;;;;;;;33.86;30.21;97957.91;4424556;32;20098;-82
2023/09/12 08:39:27;;;;;;;17.37;9.07;;;;;;;33.94;28.87;97951.53;4422081;32;20090;-82
2023/09/12 08:41:54;;;;;;;18.35;8.77;;;;;;;33.63;28.57;97960.34;4421509;32;20059;-82
2023/09/12 08:44:21;;;;;;;15.98;10.93;;;;;;;34.06;29.11;97955.12;4422112;32;20070;-82
2023/09/12 08:46:49;;;;;;;17.60;12.48;;;;;;;33.86;29.75;97962.44;4425018;32;20082;-81
2023/09/12 08:49:16;;;;;;;20.10;18.02;;;;;;;34.29;26.43;97959.06;4423711;32;20222;-81
2023/09/12 08:51:44;;;;;;;20.08;17.98;;;;;;;34.14;27.44;97967.44;4423681;32;20051;-81
2023/09/12 08:54:11;;;;;;;20.10;15.18;;;;;;;34.27;28.22;97958.47;4424002;32;20110;-81
2023/09/12 08:56:41;;;;;;;16.87;14.18;;;;;;;34.86;26.73;97960.59;4421851;32;20076;-79
2023/09/12 08:59:08;;;;;;;16.85;13.68;;;;;;;34.55;28.04;97966.06;4424623;32;20058;-80
2023/09/12 09:01:36;;;;;;;16.02;13.62;;;;;;;34.74;27.63;97968.56;4424308;32;20108;-80
2023/09/12 09:04:04;;;;;;;15.85;10.05;;;;;;;34.26;28.21;97964.88;4411810;32;20130;-79
2023/09/12 09:06:37;;;;;;;17.60;10.30;;;;;;;34.33;27.46;97958.41;4410295;32;20069;-81
2023/09/12 09:09:05;;;;;;;18.87;10.43;;;;;;;34.64;27.29;97964.75;4410670;32;20097;-79
2023/09/12 09:11:32;;;;;;;14.25;9.10;;;;;;;34.11;27.80;97962.50;4409889;32;20099;-79
2023/09/12 09:13:59;;;;;;;13.70;8.02;;;;;;;34.08;26.91;97963.75;4424263;32;20167;-80
2023/09/12 09:16:26;;;;;;;14.25;7.22;;;;;;;34.21;27.33;97958.28;4423062;32;20124;-81
2023/09/12 09:18:59;;;;;;;14.55;6.10;;;;;;;34.03;27.36;97954.72;4409037;32;20106;-81
2023/09/12 09:21:32;;;;;;;14.40;6.18;;;;;;;33.50;28.00;97955.06;4408951;32;20058;-80
2023/09/12 09:24:07;;;;;;;13.07;5.00;;;;;;;33.73;27.11;97954.53;4423077;32;20090;-80
2023/09/12 09:26:58;;;;;;;13.37;6.53;;;;;;;32.60;28.48;97960.22;4420704;32;20122;-81
2023/09/12 09:29:25;;;;;;;10.98;5.10;;;;;;;33.26;28.23;97953.91;4422485;32;20097;-81
2023/09/12 09:31:52;;;;;;;10.75;5.28;;;;;;;33.57;27.27;97956.66;4418280;32;20111;-82
2023/09/12 09:34:21;;;;;;;12.82;6.22;;;;;;;33.51;27.22;97962.88;4415654;32;20120;-80
2023/09/12 09:36:53;;;;;;;13.68;6.35;;;;;;;33.25;28.22;97952.25;4422594;32;20085;-81
2023/09/12 09:39:23;;;;;;;17.25;7.15;;;;;;;33.36;29.21;97965.00;4424195;32;20062;-81
2023/09/12 09:41:52;;;;;;;14.98;6.35;;;;;;;33.37;27.73;97953.25;4411891;32;20054;-81
2023/09/12 09:44:22;;;;;;;12.57;6.85;;;;;;;33.51;27.50;97946.81;4424312;32;20112;-80
2023/09/12 09:47:02;;;;;;;13.38;6.72;;;;;;;33.24;28.30;97959.47;4420916;32;20094;-81
2023/09/12 09:49:36;;;;;;;12.25;6.97;;;;;;;32.99;28.59;97956.69;4420269;32;20071;-81
2023/09/12 09:52:06;;;;;;;12.75;5.97;;;;;;;34.01;28.22;97962.16;4422510;32;20054;-81
2023/09/12 09:54:33;;;;;;;16.40;6.87;;;;;;;33.89;26.21;97946.81;4421207;32;20077;-81
2023/09/12 09:57:00;;;;;;;15.98;6.80;;;;;;;34.35;26.83;97955.50;4421088;32;20073;-81
2023/09/12 09:59:27;;;;;;;16.37;6.40;;;;;;;33.77;27.18;97953.84;4421827;32;20058;-83
2023/09/12 10:01:57;;;;;;;12.98;6.00;;;;;;;33.63;27.43;97950.44;4422114;32;20076;-81
2023/09/12 10:04:32;;;;;;;11.43;5.50;;;;;;;34.03;27.21;97954.72;4419966;32;20099;-82
2023/09/12 10:07:11;;;;;;;10.60;4.93;;;;;;;33.67;26.77;97948.97;4425069;32;20066;-82
2023/09/12 10:09:38;;;;;;;12.30;5.10;;;;;;;33.77;26.72;97945.81;4425115;32;20090;-81
2023/09/12 10:12:06;;;;;;;14.00;4.87;;;;;;;33.82;27.71;97946.03;4425183;32;20058;-81
2023/09/12 10:14:35;;;;;;;15.20;5.25;;;;;;;33.41;27.37;97954.50;4412091;32;20086;-81
2023/09/12 10:17:03;;;;;;;11.27;4.72;;;;;;;33.64;27.72;97943.25;4412238;32;20079;-81
2023/09/12 10:19:49;;;;;;;13.45;4.90;;;;;;;33.16;27.37;97937.47;4423096;32;20062;-81
2023/09/12 10:22:25;;;;;;;12.45;4.10;;;;;;;32.72;27.91;97947.03;4422413;32;20058;-81
2023/09/12 10:24:53;;;;;;;16.25;4.68;;;;;;;32.82;28.17;97942.09;4411265;32;20079;-81
2023/09/12 10:27:22;;;;;;;10.10;4.60;;;;;;;33.16;27.71;97937.47;4411241;32;20070;-80
2023/09/12 10:29:52;;;;;;;9.23;4.05;;;;;;;33.11;28.68;97946.16;4421244;32;20086;-81
2023/09/12 10:32:22;;;;;;;12.25;4.47;;;;;;;33.30;28.67;97941.75;4423709;32;20058;-81
2023/09/12 10:34:49;;;;;;;10.80;4.60;;;;;;;33.54;28.19;97941.03;4424313;32;20105;-83
2023/09/12 10:37:16;;;;;;;17.35;4.87;;;;;;;33.36;28.11;97938.25;4412141;32;20078;-82
2023/09/12 10:39:44;;;;;;;12.90;4.78;;;;;;;33.54;28.23;97937.53;4424774;32;20066;-82
2023/09/12 10:42:12;;;;;;;12.60;4.60;;;;;;;33.86;27.65;97928.47;4411282;32;20050;-82
2023/09/12 10:44:39;;;;;;;13.02;4.45;;;;;;;33.82;27.83;97931.81;4419797;32;20077;-84
2023/09/12 10:47:07;;;;;;;10.60;4.30;;;;;;;33.37;27.10;97929.19;4417135;32;20081;-82
2023/09/12 10:49:34;;;;;;;11.30;4.87;;;;;;;33.40;27.83;97931.47;4408295;32;20203;-80
2023/09/12 10:52:03;;;;;;;11.52;4.37;;;;;;;33.83;27.54;97923.56;4423044;32;20105;-81
2023/09/12 10:54:43;;;;;;;12.63;4.32;;;;;;;33.91;27.30;97919.81;4410508;32;20126;-81
2023/09/12 10:57:13;;;;;;;10.93;4.95;;;;;;;34.01;28.36;97922.81;4411755;32;20084;-82
2023/09/12 10:59:59;;;;;;;10.93;4.62;;;;;;;34.44;27.95;97930.09;4424800;32;20062;-82
2023/09/12 11:02:37;;;;;;;9.82;4.50;;;;;;;33.80;27.48;97923.16;4424632;32;20126;-82
2023/09/12 11:05:06;;;;;;;11.43;5.03;;;;;;;33.61;28.00;97920.44;4418155;32;20102;-81
2023/09/12 11:07:35;;;;;;;15.88;5.30;;;;;;;33.74;28.46;97922.19;4410513;32;20155;-80
2023/09/12 11:10:16;;;;;;;11.70;4.78;;;;;;;34.59;27.65;97922.56;4409500;32;20622;-80
2023/09/12 11:12:44;;;;;;;12.88;4.78;;;;;;;35.01;26.19;97915.50;4410005;32;20082;-81
2023/09/12 11:15:11;;;;;;;10.40;4.60;;;;;;;34.88;26.00;97910.31;4398591;32;20451;-82
2023/09/12 11:17:39;;;;;;;11.95;5.00;;;;;;;34.74;26.16;97906.09;4414969;32;20071;-82
2023/09/12 11:20:10;;;;;;;12.27;4.90;;;;;;;34.41;26.29;97904.59;4419897;32;20066;-82
2023/09/12 11:22:39;;;;;;;11.88;4.57;;;;;;;33.75;26.49;97913.13;4423563;32;20062;-82
2023/09/12 11:25:26;;;;;;;11.12;4.80;;;;;;;33.84;27.95;97908.34;4421608;32;20111;-82
2023/09/12 11:27:53;;;;;;;;;;;;;;;33.97;26.55;97918.16;4421415;32;20132;-82
2023/09/12 11:30:22;;;;;;;11.23;4.80;;;;;;;34.32;25.85;97919.28;4420515;32;19960;-81